sensor_id;sensor_type;location;lat;lon;timestamp;temperature;humidity
37886;DHT22;23726;52.520;13.434;2022-10-16T00:03:33;24.00;49.70
37886;DHT22;23726;52.520;13.434;2022-10-16T00:06:00;24.00;49.80
37886;DHT22;23726;52.520;13.434;2022-10-16T00:08:26;24.00;49.80
37886;DHT22;23726;52.520;13.434;2022-10-16T00:10:52;24.00;49.70
37886;DHT22;23726;52.520;13.434;2022-10-16T00:13:17;24.00;49.80
37886;DHT22;23726;52.520;13.434;2022-10-16T00:15:45;24.00;49.70
37886;DHT22;23726;52.520;13.434;2022-10-16T00:18:12;24.00;49.70
37886;DHT22;23726;52.520;13.434;2022-10-16T00:20:38;24.00;49.80
37886;DHT22;23726;52.520;13.434;2022-10-16T00:23:04;24.00;49.70
37886;DHT22;23726;52.520;13.434;2022-10-16T00:25:30;24.00;49.70
37886;DHT22;23726;52.520;13.434;2022-10-16T00:27:58;24.00;49.70
37886;DHT22;23726;52.520;13.434;2022-10-16T00:30:24;24.00;49.90
37886;DHT22;23726;52.520;13.434;2022-10-16T00:32:52;24.00;49.70
37886;DHT22;23726;52.520;13.434;2022-10-16T00:35:17;23.90;49.50
37886;DHT22;23726;52.520;13.434;2022-10-16T00:37:43;23.90;49.50
37886;DHT22;23726;52.520;13.434;2022-10-16T00:40:09;23.90;49.80
37886;DHT22;23726;52.520;13.434;2022-10-16T00:42:34;23.90;49.70
37886;DHT22;23726;52.520;13.434;2022-10-16T00:45:00;23.90;49.10
37886;DHT22;23726;52.520;13.434;2022-10-16T00:47:39;23.90;49.40
37886;DHT22;23726;52.520;13.434;2022-10-16T00:50:33;23.90;49.50
37886;DHT22;23726;52.520;13.434;2022-10-16T00:53:00;23.90;49.00
37886;DHT22;23726;52.520;13.434;2022-10-16T00:55:27;23.80;49.40
37886;DHT22;23726;52.520;13.434;2022-10-16T00:57:57;23.80;49.60
37886;DHT22;23726;52.520;13.434;2022-10-16T01:00:26;23.80;49.10
37886;DHT22;23726;52.520;13.434;2022-10-16T01:02:59;23.90;49.20
37886;DHT22;23726;52.520;13.434;2022-10-16T01:05:34;23.80;49.10
37886;DHT22;23726;52.520;13.434;2022-10-16T01:08:10;23.80;49.20
37886;DHT22;23726;52.520;13.434;2022-10-16T01:10:42;23.80;49.50
37886;DHT22;23726;52.520;13.434;2022-10-16T01:13:12;23.80;49.50
37886;DHT22;23726;52.520;13.434;2022-10-16T01:15:51;23.80;49.30
37886;DHT22;23726;52.520;13.434;2022-10-16T01:21:09;23.80;49.50
37886;DHT22;23726;52.520;13.434;2022-10-16T01:29:20;23.80;49.80
37886;DHT22;23726;52.520;13.434;2022-10-16T01:31:50;23.80;49.40
37886;DHT22;23726;52.520;13.434;2022-10-16T01:34:22;23.80;49.80
37886;DHT22;23726;52.520;13.434;2022-10-16T01:36:55;23.70;49.50
37886;DHT22;23726;52.520;13.434;2022-10-16T01:39:31;23.80;49.70
37886;DHT22;23726;52.520;13.434;2022-10-16T01:42:11;23.80;49.70
37886;DHT22;23726;52.520;13.434;2022-10-16T01:44:39;23.70;49.80
37886;DHT22;23726;52.520;13.434;2022-10-16T01:47:09;23.80;49.80
37886;DHT22;23726;52.520;13.434;2022-10-16T01:49:37;23.70;49.80
37886;DHT22;23726;52.520;13.434;2022-10-16T01:52:08;23.70;49.90
37886;DHT22;23726;52.520;13.434;2022-10-16T01:54:35;23.70;49.90
37886;DHT22;23726;52.520;13.434;2022-10-16T01:57:03;23.70;49.70
37886;DHT22;23726;52.520;13.434;2022-10-16T01:59:32;23.70;49.90
37886;DHT22;23726;52.520;13.434;2022-10-16T02:02:06;23.60;49.90
37886;DHT22;23726;52.520;13.434;2022-10-16T02:04:40;23.70;49.70
37886;DHT22;23726;52.520;13.434;2022-10-16T02:07:07;23.70;49.90
37886;DHT22;23726;52.520;13.434;2022-10-16T02:09:34;23.70;49.90
37886;DHT22;23726;52.520;13.434;2022-10-16T02:12:06;23.70;49.80
37886;DHT22;23726;52.520;13.434;2022-10-16T02:14:34;23.70;49.90
37886;DHT22;23726;52.520;13.434;2022-10-16T02:17:11;23.70;49.80
37886;DHT22;23726;52.520;13.434;2022-10-16T02:19:37;23.70;49.80
37886;DHT22;23726;52.520;13.434;2022-10-16T02:22:04;23.70;49.70
37886;DHT22;23726;52.520;13.434;2022-10-16T02:29:53;23.70;49.70
37886;DHT22;23726;52.520;13.434;2022-10-16T02:32:25;23.70;49.70
37886;DHT22;23726;52.520;13.434;2022-10-16T02:34:53;23.70;49.70
37886;DHT22;23726;52.520;13.434;2022-10-16T02:37:19;23.70;49.80
37886;DHT22;23726;52.520;13.434;2022-10-16T02:39:45;23.70;50.30
37886;DHT22;23726;52.520;13.434;2022-10-16T02:42:14;23.70;49.90
37886;DHT22;23726;52.520;13.434;2022-10-16T02:44:41;23.70;49.90
37886;DHT22;23726;52.520;13.434;2022-10-16T02:47:07;23.70;50.00
37886;DHT22;23726;52.520;13.434;2022-10-16T02:49:33;23.60;49.60
37886;DHT22;23726;52.520;13.434;2022-10-16T02:51:58;23.70;49.80
37886;DHT22;23726;52.520;13.434;2022-10-16T02:54:24;23.70;49.80
37886;DHT22;23726;52.520;13.434;2022-10-16T02:56:50;23.70;49.90
37886;DHT22;23726;52.520;13.434;2022-10-16T02:59:15;23.70;49.80
37886;DHT22;23726;52.520;13.434;2022-10-16T03:01:42;23.70;49.80
37886;DHT22;23726;52.520;13.434;2022-10-16T03:04:08;23.70;49.80
37886;DHT22;23726;52.520;13.434;2022-10-16T03:06:34;23.70;49.90
37886;DHT22;23726;52.520;13.434;2022-10-16T03:09:00;23.70;49.80
37886;DHT22;23726;52.520;13.434;2022-10-16T03:11:25;23.70;49.80
37886;DHT22;23726;52.520;13.434;2022-10-16T03:13:51;23.70;49.80
37886;DHT22;23726;52.520;13.434;2022-10-16T03:16:17;23.60;49.90
37886;DHT22;23726;52.520;13.434;2022-10-16T03:18:42;23.70;49.90
37886;DHT22;23726;52.520;13.434;2022-10-16T03:21:08;23.70;50.00
37886;DHT22;23726;52.520;13.434;2022-10-16T03:23:33;23.70;50.00
37886;DHT22;23726;52.520;13.434;2022-10-16T03:25:59;23.60;49.80
37886;DHT22;23726;52.520;13.434;2022-10-16T03:28:24;23.70;50.00
37886;DHT22;23726;52.520;13.434;2022-10-16T03:30:50;23.70;49.90
37886;DHT22;23726;52.520;13.434;2022-10-16T03:33:15;23.60;49.90
37886;DHT22;23726;52.520;13.434;2022-10-16T03:35:41;23.70;49.80
37886;DHT22;23726;52.520;13.434;2022-10-16T03:38:07;23.70;50.50
37886;DHT22;23726;52.520;13.434;2022-10-16T03:40:32;23.70;49.90
37886;DHT22;23726;52.520;13.434;2022-10-16T03:42:58;23.70;50.00
37886;DHT22;23726;52.520;13.434;2022-10-16T03:45:24;23.70;49.90
37886;DHT22;23726;52.520;13.434;2022-10-16T03:47:50;23.60;50.00
37886;DHT22;23726;52.520;13.434;2022-10-16T03:50:17;23.70;49.90
37886;DHT22;23726;52.520;13.434;2022-10-16T03:52:43;23.60;50.10
37886;DHT22;23726;52.520;13.434;2022-10-16T03:55:08;23.70;50.20
37886;DHT22;23726;52.520;13.434;2022-10-16T03:57:34;23.60;50.00
37886;DHT22;23726;52.520;13.434;2022-10-16T03:59:59;23.70;50.00
37886;DHT22;23726;52.520;13.434;2022-10-16T04:02:26;23.70;50.00
37886;DHT22;23726;52.520;13.434;2022-10-16T04:04:51;23.60;49.80
37886;DHT22;23726;52.520;13.434;2022-10-16T04:07:17;23.70;50.10
37886;DHT22;23726;52.520;13.434;2022-10-16T04:09:43;23.70;50.00
37886;DHT22;23726;52.520;13.434;2022-10-16T04:12:08;23.70;50.20
37886;DHT22;23726;52.520;13.434;2022-10-16T04:14:34;23.60;50.00
37886;DHT22;23726;52.520;13.434;2022-10-16T04:17:00;23.60;50.00
37886;DHT22;23726;52.520;13.434;2022-10-16T04:19:25;23.70;50.10
37886;DHT22;23726;52.520;13.434;2022-10-16T04:21:51;23.70;50.00
37886;DHT22;23726;52.520;13.434;2022-10-16T04:24:17;23.60;50.00
37886;DHT22;23726;52.520;13.434;2022-10-16T04:26:43;23.60;50.00
37886;DHT22;23726;52.520;13.434;2022-10-16T04:29:08;23.70;50.00
37886;DHT22;23726;52.520;13.434;2022-10-16T04:31:34;23.60;50.00
37886;DHT22;23726;52.520;13.434;2022-10-16T04:33:59;23.70;50.10
37886;DHT22;23726;52.520;13.434;2022-10-16T04:36:26;23.70;50.00
37886;DHT22;23726;52.520;13.434;2022-10-16T04:38:51;23.70;49.90
37886;DHT22;23726;52.520;13.434;2022-10-16T04:41:17;23.70;49.90
37886;DHT22;23726;52.520;13.434;2022-10-16T04:43:43;23.60;49.80
37886;DHT22;23726;52.520;13.434;2022-10-16T04:46:09;23.60;49.90
37886;DHT22;23726;52.520;13.434;2022-10-16T04:48:35;23.70;49.80
37886;DHT22;23726;52.520;13.434;2022-10-16T04:51:01;23.70;49.80
37886;DHT22;23726;52.520;13.434;2022-10-16T04:53:26;23.70;49.80
37886;DHT22;23726;52.520;13.434;2022-10-16T04:55:52;23.70;49.90
37886;DHT22;23726;52.520;13.434;2022-10-16T04:58:17;23.70;49.80
37886;DHT22;23726;52.520;13.434;2022-10-16T05:00:45;23.70;49.90
37886;DHT22;23726;52.520;13.434;2022-10-16T05:03:12;23.70;50.00
37886;DHT22;23726;52.520;13.434;2022-10-16T05:05:42;23.70;50.00
37886;DHT22;23726;52.520;13.434;2022-10-16T05:08:09;23.70;49.90
37886;DHT22;23726;52.520;13.434;2022-10-16T05:10:35;23.70;50.00
37886;DHT22;23726;52.520;13.434;2022-10-16T05:13:00;23.70;50.00
37886;DHT22;23726;52.520;13.434;2022-10-16T05:15:26;23.70;49.80
37886;DHT22;23726;52.520;13.434;2022-10-16T05:17:53;23.70;50.00
37886;DHT22;23726;52.520;13.434;2022-10-16T05:20:20;23.70;49.80
37886;DHT22;23726;52.520;13.434;2022-10-16T05:22:46;23.70;50.10
37886;DHT22;23726;52.520;13.434;2022-10-16T05:25:11;23.70;49.90
37886;DHT22;23726;52.520;13.434;2022-10-16T05:27:37;23.70;49.90
37886;DHT22;23726;52.520;13.434;2022-10-16T05:30:03;23.70;50.00
37886;DHT22;23726;52.520;13.434;2022-10-16T05:32:28;23.60;49.80
37886;DHT22;23726;52.520;13.434;2022-10-16T05:34:55;23.70;50.00
37886;DHT22;23726;52.520;13.434;2022-10-16T05:37:20;23.70;49.80
37886;DHT22;23726;52.520;13.434;2022-10-16T05:39:46;23.70;49.90
37886;DHT22;23726;52.520;13.434;2022-10-16T05:42:11;23.70;49.80
37886;DHT22;23726;52.520;13.434;2022-10-16T05:44:37;23.70;49.70
37886;DHT22;23726;52.520;13.434;2022-10-16T05:47:02;23.70;49.70
37886;DHT22;23726;52.520;13.434;2022-10-16T05:49:28;23.70;49.90
37886;DHT22;23726;52.520;13.434;2022-10-16T05:51:54;23.70;49.90
37886;DHT22;23726;52.520;13.434;2022-10-16T05:54:20;23.70;49.90
37886;DHT22;23726;52.520;13.434;2022-10-16T05:56:45;23.70;49.80
37886;DHT22;23726;52.520;13.434;2022-10-16T05:59:10;23.70;49.90
37886;DHT22;23726;52.520;13.434;2022-10-16T06:01:36;23.70;49.70
37886;DHT22;23726;52.520;13.434;2022-10-16T06:04:02;23.70;49.90
37886;DHT22;23726;52.520;13.434;2022-10-16T06:06:28;23.70;49.90
37886;DHT22;23726;52.520;13.434;2022-10-16T06:08:55;23.70;49.80
37886;DHT22;23726;52.520;13.434;2022-10-16T06:11:27;23.70;49.70
37886;DHT22;23726;52.520;13.434;2022-10-16T06:13:55;23.70;49.90
37886;DHT22;23726;52.520;13.434;2022-10-16T06:16:24;23.70;49.90
37886;DHT22;23726;52.520;13.434;2022-10-16T06:18:54;23.70;49.80
37886;DHT22;23726;52.520;13.434;2022-10-16T06:21:22;23.70;49.90
37886;DHT22;23726;52.520;13.434;2022-10-16T06:23:50;23.70;49.80
37886;DHT22;23726;52.520;13.434;2022-10-16T06:26:18;23.70;49.80
37886;DHT22;23726;52.520;13.434;2022-10-16T06:28:44;23.70;49.80
37886;DHT22;23726;52.520;13.434;2022-10-16T06:31:10;23.70;49.70
37886;DHT22;23726;52.520;13.434;2022-10-16T06:33:37;23.70;49.70
37886;DHT22;23726;52.520;13.434;2022-10-16T06:36:12;23.60;49.80
37886;DHT22;23726;52.520;13.434;2022-10-16T06:38:39;23.70;49.60
37886;DHT22;23726;52.520;13.434;2022-10-16T06:41:06;23.70;49.80
37886;DHT22;23726;52.520;13.434;2022-10-16T06:43:32;23.60;49.60
37886;DHT22;23726;52.520;13.434;2022-10-16T06:45:59;23.70;49.80
37886;DHT22;23726;52.520;13.434;2022-10-16T06:48:26;23.70;49.90
37886;DHT22;23726;52.520;13.434;2022-10-16T06:53:22;23.70;49.80
37886;DHT22;23726;52.520;13.434;2022-10-16T06:55:47;23.70;49.90
37886;DHT22;23726;52.520;13.434;2022-10-16T06:58:13;23.60;49.80
37886;DHT22;23726;52.520;13.434;2022-10-16T07:00:39;23.70;49.80
37886;DHT22;23726;52.520;13.434;2022-10-16T07:03:04;23.70;49.70
37886;DHT22;23726;52.520;13.434;2022-10-16T07:05:30;23.70;49.80
37886;DHT22;23726;52.520;13.434;2022-10-16T07:07:55;23.70;49.60
37886;DHT22;23726;52.520;13.434;2022-10-16T07:10:21;23.60;49.70
37886;DHT22;23726;52.520;13.434;2022-10-16T07:12:49;23.60;49.90
37886;DHT22;23726;52.520;13.434;2022-10-16T07:15:15;23.60;49.90
37886;DHT22;23726;52.520;13.434;2022-10-16T07:17:40;23.70;49.90
37886;DHT22;23726;52.520;13.434;2022-10-16T07:20:06;23.60;49.80
37886;DHT22;23726;52.520;13.434;2022-10-16T07:22:33;23.60;49.80
37886;DHT22;23726;52.520;13.434;2022-10-16T07:24:58;23.70;50.00
37886;DHT22;23726;52.520;13.434;2022-10-16T07:27:24;23.70;49.90
37886;DHT22;23726;52.520;13.434;2022-10-16T07:29:50;23.70;49.90
37886;DHT22;23726;52.520;13.434;2022-10-16T07:32:15;23.70;50.10
37886;DHT22;23726;52.520;13.434;2022-10-16T07:34:41;23.60;49.80
37886;DHT22;23726;52.520;13.434;2022-10-16T07:37:07;23.70;50.00
37886;DHT22;23726;52.520;13.434;2022-10-16T07:39:32;23.70;50.00
37886;DHT22;23726;52.520;13.434;2022-10-16T07:41:58;23.70;50.10
37886;DHT22;23726;52.520;13.434;2022-10-16T07:44:24;23.70;49.90
37886;DHT22;23726;52.520;13.434;2022-10-16T07:46:49;23.70;50.10
37886;DHT22;23726;52.520;13.434;2022-10-16T07:49:15;23.70;50.10
37886;DHT22;23726;52.520;13.434;2022-10-16T07:51:41;23.70;50.00
37886;DHT22;23726;52.520;13.434;2022-10-16T07:54:08;23.70;50.00
37886;DHT22;23726;52.520;13.434;2022-10-16T07:56:34;23.70;50.10
37886;DHT22;23726;52.520;13.434;2022-10-16T07:58:59;23.70;49.80
37886;DHT22;23726;52.520;13.434;2022-10-16T08:01:26;23.70;49.90
37886;DHT22;23726;52.520;13.434;2022-10-16T08:03:52;23.70;50.00
37886;DHT22;23726;52.520;13.434;2022-10-16T08:06:19;23.70;50.10
37886;DHT22;23726;52.520;13.434;2022-10-16T08:08:45;23.70;50.10
37886;DHT22;23726;52.520;13.434;2022-10-16T08:11:10;23.70;49.80
37886;DHT22;23726;52.520;13.434;2022-10-16T08:13:36;23.70;49.80
37886;DHT22;23726;52.520;13.434;2022-10-16T08:16:02;23.70;50.10
37886;DHT22;23726;52.520;13.434;2022-10-16T08:18:33;23.70;50.00
37886;DHT22;23726;52.520;13.434;2022-10-16T08:20:59;23.70;49.90
37886;DHT22;23726;52.520;13.434;2022-10-16T08:23:26;23.70;49.90
37886;DHT22;23726;52.520;13.434;2022-10-16T08:25:55;23.70;50.20
37886;DHT22;23726;52.520;13.434;2022-10-16T08:28:22;23.70;50.20
37886;DHT22;23726;52.520;13.434;2022-10-16T08:30:47;23.70;50.00
37886;DHT22;23726;52.520;13.434;2022-10-16T08:33:14;23.70;50.00
37886;DHT22;23726;52.520;13.434;2022-10-16T08:35:39;23.70;50.20
37886;DHT22;23726;52.520;13.434;2022-10-16T08:38:05;23.70;50.20
37886;DHT22;23726;52.520;13.434;2022-10-16T08:40:33;23.70;50.20
37886;DHT22;23726;52.520;13.434;2022-10-16T08:48:30;23.70;50.30
37886;DHT22;23726;52.520;13.434;2022-10-16T08:50:56;23.70;50.20
37886;DHT22;23726;52.520;13.434;2022-10-16T08:53:30;23.70;50.40
37886;DHT22;23726;52.520;13.434;2022-10-16T08:55:56;23.70;50.20
37886;DHT22;23726;52.520;13.434;2022-10-16T08:58:27;23.70;50.10
37886;DHT22;23726;52.520;13.434;2022-10-16T09:01:04;23.70;50.30
37886;DHT22;23726;52.520;13.434;2022-10-16T09:03:40;23.70;50.10
37886;DHT22;23726;52.520;13.434;2022-10-16T09:06:40;23.70;49.80
37886;DHT22;23726;52.520;13.434;2022-10-16T09:17:41;23.70;50.40
37886;DHT22;23726;52.520;13.434;2022-10-16T09:25:30;23.70;50.20
37886;DHT22;23726;52.520;13.434;2022-10-16T09:27:56;23.70;50.10
37886;DHT22;23726;52.520;13.434;2022-10-16T09:30:22;23.70;50.10
37886;DHT22;23726;52.520;13.434;2022-10-16T09:32:50;23.70;49.80
37886;DHT22;23726;52.520;13.434;2022-10-16T09:35:20;23.70;50.20
37886;DHT22;23726;52.520;13.434;2022-10-16T09:37:49;23.70;49.90
37886;DHT22;23726;52.520;13.434;2022-10-16T09:40:33;23.70;50.00
37886;DHT22;23726;52.520;13.434;2022-10-16T09:43:17;23.70;49.90
37886;DHT22;23726;52.520;13.434;2022-10-16T09:46:03;23.70;50.00
37886;DHT22;23726;52.520;13.434;2022-10-16T09:48:49;23.70;50.00
37886;DHT22;23726;52.520;13.434;2022-10-16T09:51:21;23.70;50.10
37886;DHT22;23726;52.520;13.434;2022-10-16T09:53:48;23.70;49.90
37886;DHT22;23726;52.520;13.434;2022-10-16T09:56:23;23.70;50.30
37886;DHT22;23726;52.520;13.434;2022-10-16T09:58:54;23.70;50.00
37886;DHT22;23726;52.520;13.434;2022-10-16T10:01:21;23.70;49.70
37886;DHT22;23726;52.520;13.434;2022-10-16T10:03:48;23.70;50.00
37886;DHT22;23726;52.520;13.434;2022-10-16T10:06:27;23.70;49.70
37886;DHT22;23726;52.520;13.434;2022-10-16T10:11:44;23.70;50.00
37886;DHT22;23726;52.520;13.434;2022-10-16T10:14:22;23.70;49.90
37886;DHT22;23726;52.520;13.434;2022-10-16T10:16:49;23.70;50.00
37886;DHT22;23726;52.520;13.434;2022-10-16T10:19:22;23.70;50.60
37886;DHT22;23726;52.520;13.434;2022-10-16T10:21:49;23.70;50.80
37886;DHT22;23726;52.520;13.434;2022-10-16T10:24:17;23.70;50.30
37886;DHT22;23726;52.520;13.434;2022-10-16T10:27:06;23.70;50.50
37886;DHT22;23726;52.520;13.434;2022-10-16T10:35:13;23.60;50.70
37886;DHT22;23726;52.520;13.434;2022-10-16T10:40:51;23.70;50.40
37886;DHT22;23726;52.520;13.434;2022-10-16T10:46:28;23.70;50.60
37886;DHT22;23726;52.520;13.434;2022-10-16T10:49:06;23.70;50.50
37886;DHT22;23726;52.520;13.434;2022-10-16T10:54:14;23.70;50.50
37886;DHT22;23726;52.520;13.434;2022-10-16T10:56:45;23.70;50.60
37886;DHT22;23726;52.520;13.434;2022-10-16T11:01:59;23.70;51.30
37886;DHT22;23726;52.520;13.434;2022-10-16T11:04:29;23.70;50.20
37886;DHT22;23726;52.520;13.434;2022-10-16T11:07:03;23.70;50.60
37886;DHT22;23726;52.520;13.434;2022-10-16T11:09:37;23.70;50.20
37886;DHT22;23726;52.520;13.434;2022-10-16T11:12:14;23.70;50.50
37886;DHT22;23726;52.520;13.434;2022-10-16T11:17:19;23.80;50.80
37886;DHT22;23726;52.520;13.434;2022-10-16T11:19:49;23.80;50.80
37886;DHT22;23726;52.520;13.434;2022-10-16T11:22:47;23.70;50.70
37886;DHT22;23726;52.520;13.434;2022-10-16T11:25:37;23.80;50.70
37886;DHT22;23726;52.520;13.434;2022-10-16T11:28:11;23.80;50.70
37886;DHT22;23726;52.520;13.434;2022-10-16T11:30:50;23.80;50.60
37886;DHT22;23726;52.520;13.434;2022-10-16T11:39:04;23.80;50.80
37886;DHT22;23726;52.520;13.434;2022-10-16T11:49:34;23.80;50.70
37886;DHT22;23726;52.520;13.434;2022-10-16T11:52:20;23.80;50.40
37886;DHT22;23726;52.520;13.434;2022-10-16T11:55:05;23.80;50.90
37886;DHT22;23726;52.520;13.434;2022-10-16T11:57:51;23.80;50.70
37886;DHT22;23726;52.520;13.434;2022-10-16T12:00:28;23.80;50.60
37886;DHT22;23726;52.520;13.434;2022-10-16T12:03:19;23.70;50.90
37886;DHT22;23726;52.520;13.434;2022-10-16T12:06:06;23.80;50.20
37886;DHT22;23726;52.520;13.434;2022-10-16T12:08:36;23.80;50.20
37886;DHT22;23726;52.520;13.434;2022-10-16T12:17:01;23.80;50.00
37886;DHT22;23726;52.520;13.434;2022-10-16T12:19:31;23.70;50.00
37886;DHT22;23726;52.520;13.434;2022-10-16T12:22:02;23.70;50.10
37886;DHT22;23726;52.520;13.434;2022-10-16T12:24:51;23.80;50.60
37886;DHT22;23726;52.520;13.434;2022-10-16T12:27:28;23.80;49.80
37886;DHT22;23726;52.520;13.434;2022-10-16T12:30:03;23.80;49.80
37886;DHT22;23726;52.520;13.434;2022-10-16T12:32:36;23.80;49.60
37886;DHT22;23726;52.520;13.434;2022-10-16T12:35:05;23.80;49.60
37886;DHT22;23726;52.520;13.434;2022-10-16T12:37:36;23.80;49.70
37886;DHT22;23726;52.520;13.434;2022-10-16T12:40:15;23.80;49.60
37886;DHT22;23726;52.520;13.434;2022-10-16T12:42:41;23.80;49.60
37886;DHT22;23726;52.520;13.434;2022-10-16T12:45:30;23.80;50.00
37886;DHT22;23726;52.520;13.434;2022-10-16T12:47:57;23.80;49.50
37886;DHT22;23726;52.520;13.434;2022-10-16T12:50:36;23.80;49.50
37886;DHT22;23726;52.520;13.434;2022-10-16T12:53:04;23.80;49.30
37886;DHT22;23726;52.520;13.434;2022-10-16T12:56:08;23.80;49.40
37886;DHT22;23726;52.520;13.434;2022-10-16T12:58:55;23.80;49.30
37886;DHT22;23726;52.520;13.434;2022-10-16T13:01:58;23.80;49.50
37886;DHT22;23726;52.520;13.434;2022-10-16T13:04:42;23.80;49.30
37886;DHT22;23726;52.520;13.434;2022-10-16T13:07:37;23.80;49.20
37886;DHT22;23726;52.520;13.434;2022-10-16T13:13:12;23.80;49.20
37886;DHT22;23726;52.520;13.434;2022-10-16T13:16:01;23.80;49.00
37886;DHT22;23726;52.520;13.434;2022-10-16T13:18:36;23.80;48.80
37886;DHT22;23726;52.520;13.434;2022-10-16T13:24:26;23.80;48.70
37886;DHT22;23726;52.520;13.434;2022-10-16T13:27:07;23.80;48.80
37886;DHT22;23726;52.520;13.434;2022-10-16T13:29:38;23.80;48.60
37886;DHT22;23726;52.520;13.434;2022-10-16T13:32:10;23.80;48.30
37886;DHT22;23726;52.520;13.434;2022-10-16T13:34:46;23.80;48.30
37886;DHT22;23726;52.520;13.434;2022-10-16T13:37:22;23.80;48.20
37886;DHT22;23726;52.520;13.434;2022-10-16T13:39:48;23.80;48.10
37886;DHT22;23726;52.520;13.434;2022-10-16T13:42:24;23.80;48.60
37886;DHT22;23726;52.520;13.434;2022-10-16T13:44:52;23.90;48.40
37886;DHT22;23726;52.520;13.434;2022-10-16T13:47:28;23.90;48.40
37886;DHT22;23726;52.520;13.434;2022-10-16T13:50:09;23.90;48.20
37886;DHT22;23726;52.520;13.434;2022-10-16T13:52:36;23.90;48.10
37886;DHT22;23726;52.520;13.434;2022-10-16T13:55:04;23.90;48.10
37886;DHT22;23726;52.520;13.434;2022-10-16T13:57:30;23.90;48.10
37886;DHT22;23726;52.520;13.434;2022-10-16T13:59:55;23.90;48.10
37886;DHT22;23726;52.520;13.434;2022-10-16T14:02:26;23.90;48.10
37886;DHT22;23726;52.520;13.434;2022-10-16T14:04:53;23.90;48.10
37886;DHT22;23726;52.520;13.434;2022-10-16T14:07:40;23.90;48.10
37886;DHT22;23726;52.520;13.434;2022-10-16T14:10:18;23.90;48.10
37886;DHT22;23726;52.520;13.434;2022-10-16T14:12:47;23.90;48.10
37886;DHT22;23726;52.520;13.434;2022-10-16T14:15:19;23.90;47.90
37886;DHT22;23726;52.520;13.434;2022-10-16T14:17:47;23.90;46.60
37886;DHT22;23726;52.520;13.434;2022-10-16T14:20:15;23.90;46.60
37886;DHT22;23726;52.520;13.434;2022-10-16T14:22:42;23.90;46.90
37886;DHT22;23726;52.520;13.434;2022-10-16T14:28:18;23.80;46.40
37886;DHT22;23726;52.520;13.434;2022-10-16T14:30:56;23.90;46.50
37886;DHT22;23726;52.520;13.434;2022-10-16T14:38:35;23.90;46.70
37886;DHT22;23726;52.520;13.434;2022-10-16T14:41:03;23.90;46.70
37886;DHT22;23726;52.520;13.434;2022-10-16T14:43:42;23.90;46.70
37886;DHT22;23726;52.520;13.434;2022-10-16T14:46:22;24.00;46.80
37886;DHT22;23726;52.520;13.434;2022-10-16T14:51:35;24.00;46.80
37886;DHT22;23726;52.520;13.434;2022-10-16T14:54:01;24.00;46.80
37886;DHT22;23726;52.520;13.434;2022-10-16T14:56:44;24.00;46.80
37886;DHT22;23726;52.520;13.434;2022-10-16T14:59:38;24.00;46.80
37886;DHT22;23726;52.520;13.434;2022-10-16T15:02:33;24.00;46.70
37886;DHT22;23726;52.520;13.434;2022-10-16T15:07:54;24.00;46.80
37886;DHT22;23726;52.520;13.434;2022-10-16T15:10:23;24.00;47.00
37886;DHT22;23726;52.520;13.434;2022-10-16T15:12:53;24.00;46.90
37886;DHT22;23726;52.520;13.434;2022-10-16T15:15:35;24.00;46.90
37886;DHT22;23726;52.520;13.434;2022-10-16T15:18:03;24.00;47.00
37886;DHT22;23726;52.520;13.434;2022-10-16T15:20:36;24.00;47.10
37886;DHT22;23726;52.520;13.434;2022-10-16T15:23:13;24.00;47.10
37886;DHT22;23726;52.520;13.434;2022-10-16T15:25:46;24.00;47.40
37886;DHT22;23726;52.520;13.434;2022-10-16T15:28:16;24.00;47.30
37886;DHT22;23726;52.520;13.434;2022-10-16T15:30:44;24.00;47.40
37886;DHT22;23726;52.520;13.434;2022-10-16T15:33:14;24.00;47.40
37886;DHT22;23726;52.520;13.434;2022-10-16T15:35:45;24.10;47.50
37886;DHT22;23726;52.520;13.434;2022-10-16T15:38:14;24.10;47.40
37886;DHT22;23726;52.520;13.434;2022-10-16T15:40:42;24.10;47.50
37886;DHT22;23726;52.520;13.434;2022-10-16T15:43:09;24.10;47.40
37886;DHT22;23726;52.520;13.434;2022-10-16T15:45:39;24.10;47.50
37886;DHT22;23726;52.520;13.434;2022-10-16T15:48:10;24.10;47.40
37886;DHT22;23726;52.520;13.434;2022-10-16T15:50:38;24.10;47.40
37886;DHT22;23726;52.520;13.434;2022-10-16T15:53:03;24.10;47.50
37886;DHT22;23726;52.520;13.434;2022-10-16T15:55:29;24.10;47.50
37886;DHT22;23726;52.520;13.434;2022-10-16T15:57:55;24.10;47.40
37886;DHT22;23726;52.520;13.434;2022-10-16T16:00:20;24.10;47.40
37886;DHT22;23726;52.520;13.434;2022-10-16T16:02:51;24.10;47.40
37886;DHT22;23726;52.520;13.434;2022-10-16T16:05:17;24.10;47.40
37886;DHT22;23726;52.520;13.434;2022-10-16T16:07:43;24.10;47.40
37886;DHT22;23726;52.520;13.434;2022-10-16T16:10:11;24.10;47.60
37886;DHT22;23726;52.520;13.434;2022-10-16T16:12:37;24.10;47.70
37886;DHT22;23726;52.520;13.434;2022-10-16T16:15:07;24.10;47.60
37886;DHT22;23726;52.520;13.434;2022-10-16T16:17:34;24.10;47.60
37886;DHT22;23726;52.520;13.434;2022-10-16T16:20:01;24.10;47.70
37886;DHT22;23726;52.520;13.434;2022-10-16T16:22:27;24.10;47.70
37886;DHT22;23726;52.520;13.434;2022-10-16T16:24:53;24.10;47.70
37886;DHT22;23726;52.520;13.434;2022-10-16T16:27:18;24.10;47.70
37886;DHT22;23726;52.520;13.434;2022-10-16T16:29:45;24.10;47.70
37886;DHT22;23726;52.520;13.434;2022-10-16T16:32:11;24.10;47.60
37886;DHT22;23726;52.520;13.434;2022-10-16T16:34:36;24.10;47.50
37886;DHT22;23726;52.520;13.434;2022-10-16T16:37:02;24.10;47.60
37886;DHT22;23726;52.520;13.434;2022-10-16T16:39:28;24.10;48.10
37886;DHT22;23726;52.520;13.434;2022-10-16T16:41:56;24.10;47.50
37886;DHT22;23726;52.520;13.434;2022-10-16T16:44:24;24.10;47.70
37886;DHT22;23726;52.520;13.434;2022-10-16T16:46:50;24.10;47.50
37886;DHT22;23726;52.520;13.434;2022-10-16T16:49:16;24.10;47.50
37886;DHT22;23726;52.520;13.434;2022-10-16T16:51:42;24.10;47.40
37886;DHT22;23726;52.520;13.434;2022-10-16T16:54:12;24.10;47.30
37886;DHT22;23726;52.520;13.434;2022-10-16T16:56:42;24.10;47.60
37886;DHT22;23726;52.520;13.434;2022-10-16T16:59:13;24.10;47.70
37886;DHT22;23726;52.520;13.434;2022-10-16T17:01:40;24.10;47.50
37886;DHT22;23726;52.520;13.434;2022-10-16T17:04:06;24.10;48.00
37886;DHT22;23726;52.520;13.434;2022-10-16T17:06:31;24.10;47.50
37886;DHT22;23726;52.520;13.434;2022-10-16T17:08:58;24.10;47.50
37886;DHT22;23726;52.520;13.434;2022-10-16T17:11:26;24.10;47.50